KDCY Airport (Daviess County) Information

FAA: DCY - ICAO: KDCY

KDCY Airport Location

State Indiana
County Daviess
City Washington
KDCY Airport is 3 miles northeast of Washington, IN.
Latitude 38-42-01.5240N
Longitude 087-07-47.0360W
Elevation 468ft

KDCY Airport METARs

METAR KDCY 060715Z AUTO 14004KT 10SM CLR 25/25 A2990 RMK AO2 T02510248
Altimeter 29.90"
Temperature 25.1°C (77.2°F)
Wind 140° at 4KT
Clouds Skies are clear.
Visibility 10.0mi
Time observed: 2022-07-06T07:15:00Z

KDCY Airport Details

Status Operational
Activation January 1965
Ownership Public
Usage Public
Chart ST LOUIS
ATC on-site No
Beacon schedule sunset-sunrise
Beacon color clear green

KDCY Airport Contacts

Owner DAVIESS COUNTY BOAC
Owner address P. O. BOX 2338, WASHINGTON, IN 47501
Owner phone 586-876-1989
Manager MICHAEL ENYEART
Manager address 10 JOHN KISSINGER DRIVE, WABASH, IN 46992
Manager phone 260-569-2257

KDCY Airport (Daviess County) Radio Frequencies

KDCY (Airport) Radio Frequencies

UNICOM 122.8
Common traffic advisory frequency (CTAF) 122.8